Time;durP1;ratioP1;P1;durP2;ratioP2;P2;SDS_P1;SDS_P2;PMS_P1;PMS_P2;Temp;Humidity;BMP_temperature;BMP_pressure;BME280_temperature;BME280_humidity;BME280_pressure;Samples;Min_cycle;Max_cycle;Signal;HPM_P1;HPM_P2
2023/09/14 00:01:15;;;;;;;;;;;22.40;47.00;;;;;;5072282;28;19928;-61
2023/09/14 00:03:42;;;;;;;;;;;22.40;47.00;;;;;;5087919;28;19929;-61
2023/09/14 00:06:08;;;;;;;;;;;22.40;46.90;;;;;;5072060;28;19925;-61
2023/09/14 00:08:35;;;;;;;;;;;22.40;46.90;;;;;;5071837;28;19932;-61
2023/09/14 00:11:02;;;;;;;;;;;22.40;46.90;;;;;;5088041;28;20335;-61
2023/09/14 00:13:29;;;;;;;;;;;22.40;46.90;;;;;;5069227;28;19924;-61
2023/09/14 00:15:56;;;;;;;;;;;22.40;46.80;;;;;;5106800;28;20340;-61
2023/09/14 00:18:24;;;;;;;;;;;22.40;46.90;;;;;;5077696;28;19970;-61
2023/09/14 00:20:53;;;;;;;;;;;22.40;46.90;;;;;;5072863;28;19974;-61
2023/09/14 00:23:20;;;;;;;;;;;22.40;46.90;;;;;;5075259;28;20328;-61
2023/09/14 00:25:46;;;;;;;;;;;22.40;46.90;;;;;;5078729;28;19924;-61
2023/09/14 00:28:13;;;;;;;;;;;22.30;46.80;;;;;;5075023;28;19936;-62
2023/09/14 00:30:40;;;;;;;;;;;22.30;47.40;;;;;;5081762;28;19931;-61
2023/09/14 00:33:08;;;;;;;;;;;22.30;46.80;;;;;;5076584;28;20352;-62
2023/09/14 00:35:36;;;;;;;;;;;22.30;46.70;;;;;;5077298;28;19924;-61
2023/09/14 00:38:03;;;;;;;;;;;22.30;46.80;;;;;;5094650;28;19971;-60
2023/09/14 00:40:30;;;;;;;;;;;22.30;46.80;;;;;;5074533;28;19925;-61
2023/09/14 00:42:56;;;;;;;;;;;22.30;46.80;;;;;;5076938;28;19925;-61
2023/09/14 00:45:29;;;;;;;;;;;22.30;46.70;;;;;;5074624;28;19935;-61
2023/09/14 00:47:57;;;;;;;;;;;22.30;46.80;;;;;;5080492;28;19979;-61
2023/09/14 00:50:23;;;;;;;;;;;22.30;46.80;;;;;;5104579;28;19924;-61
2023/09/14 00:52:52;;;;;;;;;;;22.30;46.80;;;;;;5073432;28;19977;-61
2023/09/14 00:55:19;;;;;;;;;;;22.30;46.80;;;;;;5080075;28;19928;-60
2023/09/14 00:57:46;;;;;;;;;;;22.30;46.80;;;;;;5073396;28;19982;-61
2023/09/14 01:00:13;;;;;;;;;;;22.30;46.80;;;;;;5073891;28;19928;-61
2023/09/14 01:02:40;;;;;;;;;;;22.30;46.90;;;;;;5075961;28;19924;-61
2023/09/14 01:05:07;;;;;;;;;;;22.30;46.90;;;;;;5082057;28;19978;-61
2023/09/14 01:07:34;;;;;;;;;;;22.30;46.90;;;;;;5094167;28;19970;-61
2023/09/14 01:10:02;;;;;;;;;;;22.30;46.90;;;;;;5072696;28;19925;-61
2023/09/14 01:12:29;;;;;;;;;;;22.30;46.90;;;;;;5074018;28;19930;-61
2023/09/14 01:14:57;;;;;;;;;;;22.30;46.90;;;;;;5090553;28;19958;-60
2023/09/14 01:17:25;;;;;;;;;;;22.30;46.90;;;;;;5074876;28;19924;-62
2023/09/14 01:19:54;;;;;;;;;;;22.30;46.90;;;;;;5076066;28;19924;-61
2023/09/14 01:22:30;;;;;;;;;;;22.30;46.90;;;;;;5087273;28;19924;-61
2023/09/14 01:24:58;;;;;;;;;;;22.30;46.90;;;;;;5073343;28;19925;-61
2023/09/14 01:27:27;;;;;;;;;;;22.30;47.00;;;;;;5054539;28;20023;-61
2023/09/14 01:29:55;;;;;;;;;;;22.30;47.00;;;;;;5072683;28;19970;-61
2023/09/14 01:32:21;;;;;;;;;;;22.30;46.90;;;;;;5072736;28;19925;-60
2023/09/14 01:34:48;;;;;;;;;;;22.30;46.90;;;;;;5072224;28;19920;-61
2023/09/14 01:37:15;;;;;;;;;;;22.30;47.00;;;;;;5069724;28;19931;-61
2023/09/14 01:39:42;;;;;;;;;;;22.30;47.00;;;;;;5085585;28;19931;-61
2023/09/14 01:42:08;;;;;;;;;;;22.30;47.50;;;;;;5088671;28;19925;-61
2023/09/14 01:44:36;;;;;;;;;;;22.30;47.00;;;;;;5088524;28;19932;-61
2023/09/14 01:47:03;;;;;;;;;;;22.30;47.00;;;;;;5088464;28;19924;-60
2023/09/14 01:49:30;;;;;;;;;;;22.30;47.00;;;;;;5074875;28;20200;-61
2023/09/14 01:51:57;;;;;;;;;;;22.30;47.00;;;;;;5072825;28;19996;-61
2023/09/14 01:54:23;;;;;;;;;;;22.30;47.00;;;;;;5071955;28;20337;-60
2023/09/14 01:56:50;;;;;;;;;;;22.30;47.00;;;;;;5072389;28;19924;-60
2023/09/14 01:59:17;;;;;;;;;;;22.30;47.00;;;;;;5070865;28;19924;-61
2023/09/14 02:01:45;;;;;;;;;;;22.30;47.00;;;;;;5073899;28;20030;-60
2023/09/14 02:04:12;;;;;;;;;;;22.30;47.00;;;;;;5071233;28;19951;-61
2023/09/14 02:06:38;;;;;;;;;;;22.30;47.00;;;;;;5071305;28;19932;-60
2023/09/14 02:09:05;;;;;;;;;;;22.30;47.00;;;;;;5072171;28;19924;-60
2023/09/14 02:11:32;;;;;;;;;;;22.30;47.00;;;;;;5071680;28;19925;-61
2023/09/14 02:13:59;;;;;;;;;;;22.30;47.00;;;;;;5070957;28;19947;-60
2023/09/14 02:16:25;;;;;;;;;;;22.30;47.00;;;;;;5072658;28;19924;-60
2023/09/14 02:18:53;;;;;;;;;;;22.30;47.00;;;;;;5088214;28;19985;-61
2023/09/14 02:21:20;;;;;;;;;;;22.30;47.00;;;;;;5073830;28;19924;-60
2023/09/14 02:23:47;;;;;;;;;;;22.20;46.90;;;;;;5071110;28;19925;-61
2023/09/14 02:26:14;;;;;;;;;;;22.20;46.80;;;;;;5073739;28;19950;-60
2023/09/14 02:28:40;;;;;;;;;;;22.20;46.80;;;;;;5070553;28;19978;-61
2023/09/14 02:31:08;;;;;;;;;;;22.20;46.80;;;;;;5071506;28;20348;-61
2023/09/14 02:33:36;;;;;;;;;;;22.20;46.80;;;;;;5104255;28;19955;-60
2023/09/14 02:36:05;;;;;;;;;;;22.20;46.80;;;;;;5070761;28;20293;-61
2023/09/14 02:38:31;;;;;;;;;;;22.20;46.80;;;;;;5070509;28;19929;-60
2023/09/14 02:40:58;;;;;;;;;;;22.20;46.80;;;;;;5073060;28;19932;-61
2023/09/14 02:43:25;;;;;;;;;;;22.20;46.80;;;;;;5075047;28;19925;-60
2023/09/14 02:45:51;;;;;;;;;;;22.20;46.70;;;;;;5087188;28;19924;-61
2023/09/14 02:48:18;;;;;;;;;;;22.20;46.70;;;;;;5072420;28;19993;-60
2023/09/14 02:50:45;;;;;;;;;;;22.20;46.70;;;;;;5076115;28;19928;-61
2023/09/14 02:53:13;;;;;;;;;;;22.20;46.70;;;;;;5072092;28;20329;-61
2023/09/14 02:55:40;;;;;;;;;;;22.20;46.60;;;;;;5072230;28;19924;-61
2023/09/14 02:58:07;;;;;;;;;;;22.20;46.60;;;;;;5080306;28;19929;-61
2023/09/14 03:00:33;;;;;;;;;;;22.20;46.70;;;;;;5072179;28;19924;-61
2023/09/14 03:03:00;;;;;;;;;;;22.20;46.70;;;;;;5071497;28;19989;-60
2023/09/14 03:05:27;;;;;;;;;;;22.20;46.70;;;;;;5104772;28;19928;-60
2023/09/14 03:07:54;;;;;;;;;;;22.20;46.60;;;;;;5077982;28;19932;-60
2023/09/14 03:10:22;;;;;;;;;;;22.20;46.60;;;;;;5072254;28;19924;-60
2023/09/14 03:12:49;;;;;;;;;;;22.20;46.70;;;;;;5088361;28;20303;-61
2023/09/14 03:15:15;;;;;;;;;;;22.20;46.60;;;;;;5058626;28;19924;-61
2023/09/14 03:17:42;;;;;;;;;;;22.20;46.60;;;;;;5072426;28;19928;-61
2023/09/14 03:20:10;;;;;;;;;;;22.20;46.50;;;;;;5071435;28;20353;-60
2023/09/14 03:22:37;;;;;;;;;;;22.20;46.50;;;;;;5103765;28;19928;-61
2023/09/14 03:25:04;;;;;;;;;;;22.20;46.40;;;;;;5069930;28;19970;-61
2023/09/14 03:27:32;;;;;;;;;;;22.20;46.40;;;;;;5071727;28;19928;-60
2023/09/14 03:29:59;;;;;;;;;;;22.20;46.40;;;;;;5074174;28;19940;-60
2023/09/14 03:32:26;;;;;;;;;;;22.20;46.40;;;;;;5076046;28;20435;-61
2023/09/14 03:34:52;;;;;;;;;;;22.20;46.30;;;;;;5071912;28;19928;-60
2023/09/14 03:37:19;;;;;;;;;;;22.20;46.30;;;;;;5081239;28;19924;-60
2023/09/14 03:39:46;;;;;;;;;;;22.20;46.30;;;;;;5083962;28;20366;-61
2023/09/14 03:42:13;;;;;;;;;;;22.20;46.30;;;;;;5076521;28;19932;-61
2023/09/14 03:44:41;;;;;;;;;;;22.20;46.20;;;;;;5103002;28;19974;-61
2023/09/14 03:47:08;;;;;;;;;;;22.20;46.20;;;;;;5073797;28;20019;-61
2023/09/14 03:49:34;;;;;;;;;;;22.20;46.20;;;;;;5071219;28;20378;-61
2023/09/14 03:52:01;;;;;;;;;;;22.10;46.00;;;;;;5079857;28;20062;-61
2023/09/14 03:54:28;;;;;;;;;;;22.10;46.00;;;;;;5072605;28;19928;-61
2023/09/14 03:56:55;;;;;;;;;;;22.10;46.00;;;;;;5087952;28;20019;-60
2023/09/14 03:59:23;;;;;;;;;;;22.10;46.00;;;;;;5103520;28;20394;-60
2023/09/14 04:01:52;;;;;;;;;;;22.10;45.90;;;;;;5070103;28;19925;-60
2023/09/14 04:04:18;;;;;;;;;;;22.10;45.80;;;;;;5071417;28;19985;-61
2023/09/14 04:06:46;;;;;;;;;;;22.10;45.80;;;;;;5091234;28;19925;-61
2023/09/14 04:09:13;;;;;;;;;;;22.10;45.80;;;;;;5070351;28;20026;-61
2023/09/14 04:11:40;;;;;;;;;;;22.10;45.90;;;;;;5079776;28;19939;-61
2023/09/14 04:14:07;;;;;;;;;;;22.10;45.90;;;;;;5104998;28;19974;-61
2023/09/14 04:16:33;;;;;;;;;;;22.10;46.40;;;;;;5078005;28;19924;-60
2023/09/14 04:19:02;;;;;;;;;;;22.10;45.80;;;;;;5075529;28;19961;-60
2023/09/14 04:21:29;;;;;;;;;;;22.10;45.80;;;;;;5071187;28;20022;-61
2023/09/14 04:23:55;;;;;;;;;;;22.10;45.80;;;;;;5071538;28;19924;-61
2023/09/14 04:26:22;;;;;;;;;;;22.10;45.80;;;;;;5089727;28;19978;-60
2023/09/14 04:28:49;;;;;;;;;;;22.10;45.80;;;;;;5079267;28;19928;-61
2023/09/14 04:31:16;;;;;;;;;;;22.10;45.70;;;;;;5065722;28;19924;-60
2023/09/14 04:33:43;;;;;;;;;;;22.00;45.60;;;;;;5079244;28;19931;-61
2023/09/14 04:36:11;;;;;;;;;;;22.00;45.60;;;;;;5071344;28;19934;-61
2023/09/14 04:38:37;;;;;;;;;;;22.10;45.60;;;;;;5074846;28;19940;-60
2023/09/14 04:41:05;;;;;;;;;;;22.00;45.50;;;;;;5090685;28;19932;-60
2023/09/14 04:43:32;;;;;;;;;;;22.00;45.60;;;;;;5074082;28;19924;-61
2023/09/14 04:46:00;;;;;;;;;;;22.00;45.50;;;;;;5070993;28;20015;-60
2023/09/14 04:48:26;;;;;;;;;;;22.00;45.50;;;;;;5100232;28;19989;-60
2023/09/14 04:50:55;;;;;;;;;;;22.00;45.50;;;;;;5070559;28;19951;-61
2023/09/14 04:53:23;;;;;;;;;;;22.00;45.50;;;;;;5070844;28;19928;-61
2023/09/14 04:55:50;;;;;;;;;;;22.00;45.60;;;;;;5086386;28;19932;-60
2023/09/14 04:58:17;;;;;;;;;;;22.00;45.70;;;;;;5093317;28;19924;-60
2023/09/14 05:00:43;;;;;;;;;;;22.00;45.80;;;;;;5071693;28;19924;-60
2023/09/14 05:03:10;;;;;;;;;;;22.00;45.80;;;;;;5075245;28;19931;-60
2023/09/14 05:05:37;;;;;;;;;;;22.00;45.90;;;;;;5074084;28;19920;-60
2023/09/14 05:08:06;;;;;;;;;;;22.00;45.90;;;;;;5074287;28;19924;-60
2023/09/14 05:10:34;;;;;;;;;;;22.00;45.80;;;;;;5078448;28;19928;-60
2023/09/14 05:13:01;;;;;;;;;;;22.00;45.90;;;;;;5085449;28;19924;-61
2023/09/14 05:15:27;;;;;;;;;;;22.00;45.90;;;;;;5099537;28;20301;-61
2023/09/14 05:17:54;;;;;;;;;;;22.00;45.90;;;;;;5073342;28;20259;-61
2023/09/14 05:20:21;;;;;;;;;;;22.00;45.90;;;;;;5079644;28;19989;-61
2023/09/14 05:22:48;;;;;;;;;;;22.10;46.00;;;;;;5098408;28;19924;-61
2023/09/14 05:25:15;;;;;;;;;;;22.10;46.00;;;;;;5078284;28;19925;-61
2023/09/14 05:27:43;;;;;;;;;;;22.00;45.80;;;;;;5075671;28;19925;-61
2023/09/14 05:30:10;;;;;;;;;;;22.10;45.90;;;;;;5078316;28;19928;-60
2023/09/14 05:32:37;;;;;;;;;;;22.10;45.90;;;;;;5078686;28;20522;-60
2023/09/14 05:35:06;;;;;;;;;;;22.10;45.90;;;;;;5073199;28;19930;-60
2023/09/14 05:37:33;;;;;;;;;;;22.10;46.00;;;;;;5074439;28;19947;-60
2023/09/14 05:39:59;;;;;;;;;;;22.10;46.00;;;;;;5078069;28;19943;-60
2023/09/14 05:42:27;;;;;;;;;;;22.10;46.00;;;;;;5097658;28;19924;-60
2023/09/14 05:44:56;;;;;;;;;;;22.10;46.10;;;;;;5072330;28;20011;-61
2023/09/14 05:47:22;;;;;;;;;;;22.10;46.00;;;;;;5095717;28;19924;-60
2023/09/14 05:49:49;;;;;;;;;;;22.10;46.00;;;;;;5075989;28;19931;-60
2023/09/14 05:52:16;;;;;;;;;;;22.10;46.10;;;;;;5077120;28;19924;-60
2023/09/14 05:54:43;;;;;;;;;;;22.10;46.10;;;;;;5070613;28;20220;-60
2023/09/14 05:57:10;;;;;;;;;;;22.10;46.00;;;;;;5086193;28;20347;-60
2023/09/14 05:59:37;;;;;;;;;;;22.10;46.00;;;;;;5077465;28;19963;-60
2023/09/14 06:02:05;;;;;;;;;;;22.10;46.00;;;;;;5073820;28;19934;-60
2023/09/14 06:04:32;;;;;;;;;;;22.10;46.00;;;;;;5071824;28;19936;-60
2023/09/14 06:06:59;;;;;;;;;;;22.10;46.00;;;;;;5090576;28;20329;-60
2023/09/14 06:09:26;;;;;;;;;;;22.10;46.00;;;;;;5072939;28;19925;-60
2023/09/14 06:11:52;;;;;;;;;;;22.10;46.10;;;;;;5068609;28;19924;-61
2023/09/14 06:14:19;;;;;;;;;;;22.10;46.00;;;;;;5071572;28;19997;-60
2023/09/14 06:16:46;;;;;;;;;;;22.10;46.10;;;;;;5071186;28;20013;-60
2023/09/14 06:19:14;;;;;;;;;;;22.10;46.10;;;;;;5073437;28;19928;-60
2023/09/14 06:21:41;;;;;;;;;;;22.10;46.10;;;;;;5071386;28;19943;-61
2023/09/14 06:24:07;;;;;;;;;;;22.10;46.10;;;;;;5087585;28;19934;-61
2023/09/14 06:26:34;;;;;;;;;;;22.10;46.10;;;;;;5073990;28;19928;-60
2023/09/14 06:29:01;;;;;;;;;;;22.10;46.10;;;;;;5072617;28;19939;-60
2023/09/14 06:31:28;;;;;;;;;;;22.10;46.00;;;;;;5074118;28;19928;-61
2023/09/14 06:33:55;;;;;;;;;;;22.10;46.00;;;;;;5073523;28;20018;-62
2023/09/14 06:36:23;;;;;;;;;;;22.10;45.90;;;;;;5072869;28;20047;-61
2023/09/14 06:38:50;;;;;;;;;;;22.10;46.00;;;;;;5071463;28;19928;-62
2023/09/14 06:41:16;;;;;;;;;;;22.10;46.00;;;;;;5087743;28;19932;-60
2023/09/14 06:43:44;;;;;;;;;;;22.10;46.00;;;;;;5071302;28;19967;-62
2023/09/14 06:46:11;;;;;;;;;;;22.10;46.00;;;;;;5077338;28;21138;-61
2023/09/14 06:48:38;;;;;;;;;;;22.10;46.10;;;;;;5071912;28;19928;-60
2023/09/14 06:51:05;;;;;;;;;;;22.10;46.10;;;;;;5077942;28;19925;-60
2023/09/14 06:53:34;;;;;;;;;;;22.10;46.10;;;;;;5087072;28;19963;-60
2023/09/14 06:56:05;;;;;;;;;;;22.10;46.10;;;;;;5071822;28;19931;-59
2023/09/14 06:58:31;;;;;;;;;;;22.10;46.00;;;;;;5070746;28;19929;-60
2023/09/14 07:01:02;;;;;;;;;;;22.10;46.10;;;;;;5087444;28;19925;-61
2023/09/14 07:03:29;;;;;;;;;;;22.10;46.00;;;;;;5073545;28;19924;-61
2023/09/14 07:05:55;;;;;;;;;;;22.10;46.10;;;;;;5088504;28;19966;-61
2023/09/14 07:08:22;;;;;;;;;;;22.10;46.70;;;;;;5073204;28;19931;-61
2023/09/14 07:10:50;;;;;;;;;;;22.10;46.10;;;;;;5070656;28;19928;-61
2023/09/14 07:13:17;;;;;;;;;;;22.10;46.20;;;;;;5057876;28;19980;-62
2023/09/14 07:15:44;;;;;;;;;;;22.20;46.20;;;;;;5053789;28;20337;-62
2023/09/14 07:18:11;;;;;;;;;;;22.20;46.20;;;;;;5072420;28;19929;-61
2023/09/14 07:20:38;;;;;;;;;;;22.20;46.30;;;;;;5077313;28;19963;-62
2023/09/14 07:23:05;;;;;;;;;;;22.20;46.30;;;;;;5078717;28;19928;-61
2023/09/14 07:25:32;;;;;;;;;;;22.20;46.20;;;;;;5086866;28;19982;-61
2023/09/14 07:28:01;;;;;;;;;;;22.20;46.30;;;;;;5089630;28;19925;-60
2023/09/14 07:30:27;;;;;;;;;;;22.20;46.30;;;;;;5075673;28;19970;-60
2023/09/14 07:32:54;;;;;;;;;;;22.20;46.30;;;;;;5075725;28;19982;-66
2023/09/14 07:35:21;;;;;;;;;;;22.20;46.30;;;;;;5081191;28;20373;-60
2023/09/14 07:37:48;;;;;;;;;;;22.20;46.40;;;;;;5091849;28;20041;-60
2023/09/14 07:40:14;;;;;;;;;;;22.20;46.50;;;;;;5070338;28;19927;-60
2023/09/14 07:42:41;;;;;;;;;;;22.20;46.40;;;;;;5073703;28;19936;-60
2023/09/14 07:45:10;;;;;;;;;;;22.20;46.40;;;;;;5074745;28;19924;-60
2023/09/14 07:47:37;;;;;;;;;;;22.20;46.30;;;;;;5070167;28;19924;-60
2023/09/14 07:50:03;;;;;;;;;;;22.20;46.30;;;;;;5069157;28;19932;-61
2023/09/14 07:52:30;;;;;;;;;;;22.20;46.40;;;;;;5071583;28;20007;-60
2023/09/14 07:54:57;;;;;;;;;;;22.20;46.40;;;;;;5092255;28;19978;-62
2023/09/14 07:57:24;;;;;;;;;;;22.20;46.40;;;;;;5077140;28;19925;-62
2023/09/14 07:59:51;;;;;;;;;;;22.20;46.30;;;;;;5086863;28;19986;-61
2023/09/14 08:02:19;;;;;;;;;;;22.20;46.30;;;;;;5074511;28;19924;-63
2023/09/14 08:04:46;;;;;;;;;;;22.20;46.30;;;;;;5046714;28;19932;-63
2023/09/14 08:07:14;;;;;;;;;;;22.20;46.30;;;;;;5058459;28;19924;-62
2023/09/14 08:09:41;;;;;;;;;;;22.20;46.30;;;;;;5056103;28;19951;-62
2023/09/14 08:12:08;;;;;;;;;;;22.20;46.30;;;;;;5051412;28;19924;-61
2023/09/14 08:14:35;;;;;;;;;;;22.20;46.40;;;;;;5056595;28;19928;-62
2023/09/14 08:17:01;;;;;;;;;;;22.20;46.50;;;;;;5070141;28;19947;-59
2023/09/14 08:19:30;;;;;;;;;;;22.20;46.50;;;;;;5041725;28;20015;-59
2023/09/14 08:21:57;;;;;;;;;;;22.20;46.60;;;;;;5071549;28;19928;-63
2023/09/14 08:24:24;;;;;;;;;;;22.20;46.50;;;;;;5085462;28;19924;-60
2023/09/14 08:26:51;;;;;;;;;;;22.20;46.50;;;;;;5066406;28;19925;-61
2023/09/14 08:29:18;;;;;;;;;;;22.20;46.40;;;;;;5053171;28;19974;-59
2023/09/14 08:31:45;;;;;;;;;;;22.20;46.50;;;;;;5070410;28;19982;-60
2023/09/14 08:34:12;;;;;;;;;;;22.20;46.50;;;;;;5072640;28;19947;-60
2023/09/14 08:36:41;;;;;;;;;;;22.20;46.50;;;;;;5057030;28;19952;-60
2023/09/14 08:39:07;;;;;;;;;;;22.20;46.50;;;;;;5057207;28;19952;-59
2023/09/14 08:41:35;;;;;;;;;;;22.20;46.50;;;;;;5082033;28;19974;-60
2023/09/14 08:44:02;;;;;;;;;;;22.20;46.60;;;;;;5074901;28;19924;-59
2023/09/14 08:46:29;;;;;;;;;;;22.20;46.60;;;;;;5057533;28;20420;-60
2023/09/14 08:48:56;;;;;;;;;;;22.20;46.60;;;;;;5072666;28;19978;-60
2023/09/14 08:51:22;;;;;;;;;;;22.20;46.60;;;;;;5060635;28;20430;-59
2023/09/14 08:53:50;;;;;;;;;;;22.20;46.60;;;;;;5059802;28;20012;-61
2023/09/14 08:56:17;;;;;;;;;;;22.20;47.20;;;;;;5073598;28;19925;-59
2023/09/14 08:58:44;;;;;;;;;;;22.30;46.70;;;;;;5077162;28;19989;-59
2023/09/14 09:01:11;;;;;;;;;;;22.30;46.70;;;;;;5080365;28;19949;-59
2023/09/14 09:03:38;;;;;;;;;;;22.30;46.70;;;;;;5092716;28;19938;-60
2023/09/14 09:06:05;;;;;;;;;;;22.20;46.60;;;;;;5071120;28;19951;-58
2023/09/14 09:08:32;;;;;;;;;;;22.30;46.80;;;;;;5105952;28;19932;-58
2023/09/14 09:11:00;;;;;;;;;;;22.30;46.70;;;;;;5074627;28;19925;-59
2023/09/14 09:13:32;;;;;;;;;;;22.30;46.70;;;;;;5072150;28;19928;-59
2023/09/14 09:15:59;;;;;;;;;;;22.30;46.70;;;;;;5071710;28;19925;-58
2023/09/14 09:18:26;;;;;;;;;;;22.30;46.60;;;;;;5092238;28;19928;-58
2023/09/14 09:20:52;;;;;;;;;;;22.30;46.60;;;;;;5076678;28;19925;-58
2023/09/14 09:23:20;;;;;;;;;;;22.30;46.60;;;;;;5085296;28;19924;-59
2023/09/14 09:25:47;;;;;;;;;;;22.30;47.20;;;;;;5072643;28;20340;-59
2023/09/14 09:28:15;;;;;;;;;;;22.30;46.50;;;;;;5085981;28;19975;-59
2023/09/14 09:30:44;;;;;;;;;;;22.30;46.60;;;;;;5077748;28;19931;-60
2023/09/14 09:33:10;;;;;;;;;;;22.30;46.50;;;;;;5075536;28;19925;-59
2023/09/14 09:35:37;;;;;;;;;;;22.30;46.50;;;;;;5093150;28;20370;-58
2023/09/14 09:38:10;;;;;;;;;;;22.30;46.50;;;;;;5108497;28;19932;-57
2023/09/14 09:40:40;;;;;;;;;;;22.30;46.60;;;;;;5072645;28;19928;-59
2023/09/14 09:43:07;;;;;;;;;;;22.30;46.60;;;;;;5082105;28;19935;-58
2023/09/14 09:45:35;;;;;;;;;;;22.30;46.50;;;;;;5074359;28;19929;-59
2023/09/14 09:48:02;;;;;;;;;;;22.30;46.50;;;;;;5090268;28;20374;-58
2023/09/14 09:50:29;;;;;;;;;;;22.30;46.50;;;;;;5081920;28;19956;-59
2023/09/14 09:52:56;;;;;;;;;;;22.30;46.50;;;;;;5074617;28;19944;-58
2023/09/14 09:55:23;;;;;;;;;;;22.40;46.60;;;;;;5105933;28;20560;-59
2023/09/14 09:57:50;;;;;;;;;;;22.30;46.50;;;;;;5065347;28;19964;-60
2023/09/14 10:00:19;;;;;;;;;;;22.40;46.50;;;;;;5069123;28;19924;-60
2023/09/14 10:02:47;;;;;;;;;;;22.40;46.40;;;;;;5050007;28;19928;-59
2023/09/14 10:05:14;;;;;;;;;;;22.30;46.30;;;;;;5065979;28;20515;-59
2023/09/14 10:07:41;;;;;;;;;;;22.40;46.30;;;;;;5057828;28;19930;-59
2023/09/14 10:10:08;;;;;;;;;;;22.30;46.10;;;;;;5060172;28;20196;-59
2023/09/14 10:12:38;;;;;;;;;;;22.30;46.10;;;;;;5057973;28;19932;-59
2023/09/14 10:15:05;;;;;;;;;;;22.30;46.10;;;;;;5072975;28;19924;-59
2023/09/14 10:17:32;;;;;;;;;;;22.30;46.00;;;;;;5075119;28;19924;-59
2023/09/14 10:20:00;;;;;;;;;;;22.30;45.90;;;;;;5054594;28;19924;-59
2023/09/14 10:22:27;;;;;;;;;;;22.30;45.90;;;;;;5062690;28;20365;-59
2023/09/14 10:24:55;;;;;;;;;;;22.30;45.90;;;;;;5053718;28;20336;-57
2023/09/14 10:27:21;;;;;;;;;;;22.30;46.00;;;;;;5064066;28;19931;-60
2023/09/14 10:29:48;;;;;;;;;;;22.30;46.10;;;;;;5061699;28;19931;-60
2023/09/14 10:32:15;;;;;;;;;;;22.30;46.10;;;;;;5063094;28;19951;-60
2023/09/14 10:34:42;;;;;;;;;;;22.30;46.10;;;;;;5057096;28;19924;-59
2023/09/14 10:37:11;;;;;;;;;;;22.30;46.10;;;;;;5083607;28;19939;-60
2023/09/14 10:39:38;;;;;;;;;;;22.30;46.10;;;;;;5060230;28;19924;-60
2023/09/14 10:42:05;;;;;;;;;;;22.40;46.20;;;;;;5062102;28;20027;-59
2023/09/14 10:44:32;;;;;;;;;;;22.40;46.20;;;;;;5072830;28;19985;-60
2023/09/14 10:46:59;;;;;;;;;;;22.40;46.70;;;;;;5058022;28;19932;-60
2023/09/14 10:49:26;;;;;;;;;;;22.40;46.10;;;;;;5070782;28;20262;-60
2023/09/14 10:51:52;;;;;;;;;;;22.40;46.00;;;;;;5062859;28;19925;-60
2023/09/14 10:54:23;;;;;;;;;;;22.40;46.00;;;;;;5062589;28;19932;-60
2023/09/14 10:56:50;;;;;;;;;;;22.40;46.00;;;;;;5070635;28;20450;-60
2023/09/14 10:59:16;;;;;;;;;;;22.40;45.90;;;;;;5053400;28;19978;-59
2023/09/14 11:01:47;;;;;;;;;;;22.40;46.00;;;;;;5071877;28;19958;-59
2023/09/14 11:04:14;;;;;;;;;;;22.40;46.00;;;;;;5072246;28;19925;-60
2023/09/14 11:06:41;;;;;;;;;;;22.40;46.00;;;;;;5071626;28;19982;-60
2023/09/14 11:09:07;;;;;;;;;;;22.50;46.10;;;;;;5073641;28;19932;-60
2023/09/14 11:11:42;;;;;;;;;;;22.50;46.10;;;;;;5076120;28;19932;-59
2023/09/14 11:14:09;;;;;;;;;;;22.50;46.00;;;;;;5075684;28;19925;-60
2023/09/14 11:16:43;;;;;;;;;;;22.50;45.90;;;;;;5066115;28;19924;-60
2023/09/14 11:19:10;;;;;;;;;;;22.50;46.00;;;;;;5071289;28;19998;-60
2023/09/14 11:21:42;;;;;;;;;;;22.50;45.90;;;;;;5059101;28;19925;-59
2023/09/14 11:24:09;;;;;;;;;;;22.50;45.90;;;;;;5055445;28;19925;-59
2023/09/14 11:26:37;;;;;;;;;;;22.50;45.90;;;;;;5075990;28;20003;-59
2023/09/14 11:29:06;;;;;;;;;;;22.50;45.80;;;;;;5080165;28;20441;-60
2023/09/14 11:31:33;;;;;;;;;;;22.50;45.80;;;;;;5052122;28;19973;-60
2023/09/14 11:34:05;;;;;;;;;;;22.50;45.90;;;;;;5073661;28;20003;-60
2023/09/14 11:36:32;;;;;;;;;;;22.50;45.90;;;;;;5079734;28;19925;-60
2023/09/14 11:38:59;;;;;;;;;;;22.50;45.80;;;;;;5084149;28;19937;-61
2023/09/14 11:41:43;;;;;;;;;;;22.50;45.80;;;;;;5055503;28;19936;-59
2023/09/14 11:44:12;;;;;;;;;;;22.50;45.60;;;;;;5061638;28;19924;-59
2023/09/14 11:46:38;;;;;;;;;;;22.50;45.60;;;;;;5055739;28;19932;-59
2023/09/14 11:49:05;;;;;;;;;;;22.60;45.60;;;;;;5063572;28;20385;-59
2023/09/14 11:51:32;;;;;;;;;;;22.60;45.50;;;;;;5074259;28;20282;-59
2023/09/14 11:53:59;;;;;;;;;;;22.60;45.50;;;;;;5061114;28;19935;-59
2023/09/14 11:56:26;;;;;;;;;;;22.60;45.50;;;;;;5072256;28;19924;-58
2023/09/14 11:58:53;;;;;;;;;;;22.60;45.70;;;;;;5070802;28;20038;-60
2023/09/14 12:01:21;;;;;;;;;;;22.60;45.80;;;;;;5056948;28;19924;-60
2023/09/14 12:03:48;;;;;;;;;;;22.60;45.80;;;;;;5076755;28;19978;-59
2023/09/14 12:06:15;;;;;;;;;;;22.60;45.70;;;;;;5071239;28;19929;-59
2023/09/14 12:08:48;;;;;;;;;;;22.60;45.80;;;;;;5069637;28;19924;-59
2023/09/14 12:11:15;;;;;;;;;;;22.60;45.90;;;;;;5041188;28;19925;-59
2023/09/14 12:13:49;;;;;;;;;;;22.60;45.70;;;;;;5066509;28;19924;-59
2023/09/14 12:16:19;;;;;;;;;;;22.60;45.80;;;;;;5055123;28;20385;-59
2023/09/14 12:18:47;;;;;;;;;;;22.60;45.80;;;;;;5058349;28;19981;-61
2023/09/14 12:21:14;;;;;;;;;;;22.60;45.90;;;;;;5059849;28;20561;-60
2023/09/14 12:23:41;;;;;;;;;;;22.60;45.80;;;;;;5060953;28;19973;-59
2023/09/14 12:26:08;;;;;;;;;;;22.60;45.80;;;;;;5083778;28;19924;-59
2023/09/14 12:28:35;;;;;;;;;;;22.60;45.80;;;;;;5054023;28;20267;-59
2023/09/14 12:31:01;;;;;;;;;;;22.60;45.80;;;;;;5055543;28;20004;-59
2023/09/14 12:33:28;;;;;;;;;;;22.70;46.10;;;;;;5076005;28;20086;-58
2023/09/14 12:35:57;;;;;;;;;;;22.70;46.10;;;;;;5053838;28;19951;-59
2023/09/14 12:38:24;;;;;;;;;;;22.70;46.30;;;;;;5057364;28;19932;-59
2023/09/14 12:40:50;;;;;;;;;;;22.70;46.30;;;;;;5078554;28;19924;-59
2023/09/14 12:43:17;;;;;;;;;;;22.70;46.20;;;;;;5066297;28;19924;-60
2023/09/14 12:45:44;;;;;;;;;;;22.70;46.20;;;;;;5083465;28;19928;-60
2023/09/14 12:48:11;;;;;;;;;;;22.70;46.20;;;;;;5056269;28;19929;-59
2023/09/14 12:50:37;;;;;;;;;;;22.70;46.10;;;;;;5073675;28;19946;-58
2023/09/14 12:53:08;;;;;;;;;;;22.80;46.40;;;;;;5055668;28;19986;-59
2023/09/14 12:55:38;;;;;;;;;;;22.80;46.30;;;;;;5058503;28;19924;-60
2023/09/14 12:58:05;;;;;;;;;;;22.80;46.30;;;;;;5085509;28;20320;-60
2023/09/14 13:00:33;;;;;;;;;;;22.80;46.20;;;;;;5071176;28;20361;-59
2023/09/14 13:03:00;;;;;;;;;;;22.80;46.30;;;;;;5094427;28;19971;-56
2023/09/14 13:05:27;;;;;;;;;;;22.80;46.30;;;;;;5076829;28;19931;-59
2023/09/14 13:07:54;;;;;;;;;;;22.80;46.30;;;;;;5076650;28;20547;-60
2023/09/14 13:10:23;;;;;;;;;;;22.80;46.40;;;;;;5097082;28;19924;-60
2023/09/14 13:12:50;;;;;;;;;;;22.80;46.50;;;;;;5092520;28;19963;-60
2023/09/14 13:15:22;;;;;;;;;;;22.90;46.70;;;;;;5063024;28;20009;-60
2023/09/14 13:17:49;;;;;;;;;;;22.90;46.70;;;;;;5070843;28;19925;-62
2023/09/14 13:20:16;;;;;;;;;;;22.90;46.60;;;;;;5082522;28;19969;-62
2023/09/14 13:22:43;;;;;;;;;;;22.90;46.50;;;;;;5093753;28;19986;-62
2023/09/14 13:25:09;;;;;;;;;;;22.90;46.50;;;;;;5080161;28;19924;-62
2023/09/14 13:27:40;;;;;;;;;;;22.90;46.40;;;;;;5100078;28;19924;-62
2023/09/14 13:30:09;;;;;;;;;;;22.90;46.20;;;;;;5085879;28;20019;-62
2023/09/14 13:32:37;;;;;;;;;;;22.90;45.80;;;;;;5073080;28;20004;-62
2023/09/14 13:35:04;;;;;;;;;;;22.80;45.60;;;;;;5072560;28;19978;-62
2023/09/14 13:37:31;;;;;;;;;;;22.80;45.80;;;;;;5078030;28;19925;-62
2023/09/14 13:39:58;;;;;;;;;;;22.80;46.00;;;;;;5090060;28;19928;-62
2023/09/14 13:42:24;;;;;;;;;;;22.80;46.10;;;;;;5086983;28;19928;-62
2023/09/14 13:44:53;;;;;;;;;;;22.80;46.20;;;;;;5073838;28;19928;-62
2023/09/14 13:47:20;;;;;;;;;;;22.80;46.30;;;;;;5074357;28;20179;-62
2023/09/14 13:49:46;;;;;;;;;;;22.80;46.20;;;;;;5082053;28;19924;-62
2023/09/14 13:52:13;;;;;;;;;;;22.90;46.40;;;;;;5080705;28;19964;-62
2023/09/14 13:54:40;;;;;;;;;;;22.90;46.40;;;;;;5079982;28;19959;-62
2023/09/14 13:57:07;;;;;;;;;;;22.90;46.30;;;;;;5073606;28;19997;-61
2023/09/14 13:59:34;;;;;;;;;;;22.90;46.30;;;;;;5073445;28;19925;-60
2023/09/14 14:02:03;;;;;;;;;;;22.90;46.30;;;;;;5088919;28;19929;-60
2023/09/14 14:04:31;;;;;;;;;;;22.90;46.40;;;;;;5084123;28;20015;-59
2023/09/14 14:06:58;;;;;;;;;;;22.90;46.40;;;;;;5070746;28;19932;-58
2023/09/14 14:09:25;;;;;;;;;;;22.90;46.30;;;;;;5086595;28;19970;-59
2023/09/14 14:11:51;;;;;;;;;;;22.90;46.30;;;;;;5074148;28;19936;-59
2023/09/14 14:14:18;;;;;;;;;;;22.90;46.20;;;;;;5090410;28;19973;-59
2023/09/14 14:16:47;;;;;;;;;;;23.00;46.30;;;;;;5067420;28;19929;-59